Главная страница
METAR-TAF:

METAR-TAF

Аэропорты :

Джибути, Джибути

широта: 11-33N, долгота: 043-10E, высота над уровнем моря: 49 м

Текущие метеонаблюдения

Эта сводка был подготовлена 3 часа и 0 минут назад, в 21:00 UTC
Ветер 5 Узел от восточный
Температура 31°C
Влажность 79%
Давление 1008 hPa
Видимость 10 км и более
Отдельные облака на высоте 2300 фута

METAR: HDAM 212100Z 10005KT 9999 SCT023 31/27 Q1008

Время: 03:00 (00:00 UTC)

Прогноз

Эта сводка был подготовлена 1 час и 0 минут назад, в 23:00 UTC
Прогноз действительный с 22-го 00 UTC до 22-го 24 UTC
Ветер Узел от северный
Видимость 10 км и более
небольшая облачность на высоте 2000 фута
изменения
С 22-го 06 UTC до 22-го 12 UTC
Ветер 10 Узел от восточный
Отдельные облака на высоте 2300 фута
изменения
С 22-го 15 UTC до 22-го 18 UTC
Ветер 5 Узел переменных направлений

TAF: HDAM 212300Z 2200/2224 00000KT 9999 FEW020 BECMG 2206/2212 08010KT SCT023 BECMG 2215/2218 VRB05KT

Метеонаблюдения и прогнозы для более 4000 аэропортов (сводки METAR и TAF).

Имеющиеся станции представлены на карте желтыми и красными точками.

Чтобы увидеть название станции, наведите на нее мышь.

Затем щелкните, чтобы увидеть метеонаблюдения и метеопрогнозы.

Управление картой: чтобы увеличить масштаб, щелкните зеленые кнопки с черным крестиком; чтобы уменьшить масштаб, щелкните зеленую кнопку с тире; для просмотра соседних карт щелкайте зеленые стрелки.


METAR-TAF: